Time;durP1;ratioP1;P1;durP2;ratioP2;P2;SDS_P1;SDS_P2;PMS_P1;PMS_P2;Temp;Humidity;BMP_temperature;BMP_pressure;BME280_temperature;BME280_humidity;BME280_pressure;Samples;Min_cycle;Max_cycle;Signal;HPM_P1;HPM_P2
2021/12/12 00:01:21;;;;;;;4.03;3.43;;;;;;;;;;5065106;28;20532;-75
2021/12/12 00:03:52;;;;;;;4.67;3.90;;;;;;;;;;5070185;28;20532;-75
2021/12/12 00:06:22;;;;;;;6.27;5.07;;;;;;;;;;5069446;28;20464;-74
2021/12/12 00:08:50;;;;;;;4.70;3.23;;;;;;;;;;5070342;28;20624;-75
2021/12/12 00:11:19;;;;;;;8.47;3.80;;;;;;;;;;5069101;28;20453;-75
2021/12/12 00:13:49;;;;;;;6.83;4.30;;;;;;;;;;5065206;28;20491;-75
2021/12/12 00:16:16;;;;;;;5.57;4.30;;;;;;;;;;5055301;28;20523;-75
2021/12/12 00:18:44;;;;;;;6.40;4.17;;;;;;;;;;5069207;28;20445;-75
2021/12/12 00:21:13;;;;;;;9.13;4.87;;;;;;;;;;5068894;28;20454;-75
2021/12/12 00:23:41;;;;;;;5.20;3.80;;;;;;;;;;5067572;28;20789;-75
2021/12/12 00:26:09;;;;;;;6.97;5.00;;;;;;;;;;5068538;28;20971;-75
2021/12/12 00:28:37;;;;;;;5.27;3.60;;;;;;;;;;5066686;28;20810;-74
2021/12/12 00:31:09;;;;;;;8.10;4.03;;;;;;;;;;5064278;28;20453;-74
2021/12/12 00:33:36;;;;;;;7.90;5.40;;;;;;;;;;5069630;28;20850;-75
2021/12/12 00:36:03;;;;;;;6.40;5.07;;;;;;;;;;5063832;28;20460;-74
2021/12/12 00:38:31;;;;;;;5.20;4.40;;;;;;;;;;5071277;28;20537;-75
2021/12/12 00:41:04;;;;;;;6.70;5.03;;;;;;;;;;5072472;28;20827;-75
2021/12/12 00:43:32;;;;;;;8.03;4.40;;;;;;;;;;5070342;28;20481;-75
2021/12/12 00:46:00;;;;;;;8.13;5.93;;;;;;;;;;5072179;28;20459;-74
2021/12/12 00:48:30;;;;;;;9.77;7.90;;;;;;;;;;5063232;28;20555;-74
2021/12/12 00:50:58;;;;;;;8.93;5.40;;;;;;;;;;5064067;28;20528;-75
2021/12/12 00:53:26;;;;;;;7.80;4.10;;;;;;;;;;5065458;28;20479;-73
2021/12/12 00:55:54;;;;;;;6.93;4.70;;;;;;;;;;5064230;28;20825;-71
2021/12/12 00:58:23;;;;;;;7.63;5.00;;;;;;;;;;5059036;28;20447;-76
2021/12/12 01:00:51;;;;;;;7.90;4.90;;;;;;;;;;5070981;28;20476;-77
2021/12/12 01:03:21;;;;;;;6.40;4.33;;;;;;;;;;5072805;28;20525;-76
2021/12/12 01:05:49;;;;;;;5.83;4.30;;;;;;;;;;5068550;28;20468;-76
2021/12/12 01:08:17;;;;;;;5.40;4.43;;;;;;;;;;5053442;28;20938;-75
2021/12/12 01:10:47;;;;;;;6.47;4.63;;;;;;;;;;5071498;28;20544;-76
2021/12/12 01:13:15;;;;;;;8.17;5.33;;;;;;;;;;5072232;28;21000;-75
2021/12/12 01:15:47;;;;;;;5.80;3.63;;;;;;;;;;5072451;28;20445;-76
2021/12/12 01:18:16;;;;;;;5.97;3.87;;;;;;;;;;5070587;28;20489;-76
2021/12/12 01:20:46;;;;;;;7.50;4.27;;;;;;;;;;5067638;28;20460;-75
2021/12/12 01:23:15;;;;;;;5.80;4.90;;;;;;;;;;5067016;28;20739;-76
2021/12/12 01:25:46;;;;;;;7.47;4.10;;;;;;;;;;5070272;28;21035;-76
2021/12/12 01:28:14;;;;;;;6.60;4.37;;;;;;;;;;5069128;28;20993;-76
2021/12/12 01:30:42;;;;;;;4.17;3.60;;;;;;;;;;5071586;28;20464;-76
2021/12/12 01:33:14;;;;;;;4.47;4.03;;;;;;;;;;5071930;28;20446;-76
2021/12/12 01:35:41;;;;;;;5.80;3.57;;;;;;;;;;5069316;28;20473;-76
2021/12/12 01:40:55;;;;;;;5.90;4.00;;;;;;;;;;5053687;28;20410;-75
2021/12/12 01:43:26;;;;;;;6.07;4.07;;;;;;;;;;5072214;28;20487;-74
2021/12/12 01:45:55;;;;;;;8.53;4.50;;;;;;;;;;5071512;28;20449;-70
2021/12/12 01:48:26;;;;;;;5.03;4.20;;;;;;;;;;5072475;28;20456;-75
2021/12/12 01:50:55;;;;;;;6.20;4.90;;;;;;;;;;5067435;28;20466;-73
2021/12/12 01:53:26;;;;;;;5.10;4.30;;;;;;;;;;5063537;28;20472;-75
2021/12/12 01:55:55;;;;;;;5.57;4.27;;;;;;;;;;5071171;28;20445;-70
2021/12/12 01:58:24;;;;;;;6.10;4.17;;;;;;;;;;5071974;28;20453;-74
2021/12/12 02:00:53;;;;;;;4.60;4.00;;;;;;;;;;5064239;28;20452;-74
2021/12/12 02:03:22;;;;;;;5.30;4.10;;;;;;;;;;5072011;28;20857;-74
2021/12/12 02:05:51;;;;;;;5.20;4.20;;;;;;;;;;5071835;28;20464;-75
2021/12/12 02:08:19;;;;;;;3.80;3.40;;;;;;;;;;5060131;28;20500;-73
2021/12/12 02:10:48;;;;;;;6.83;3.93;;;;;;;;;;5071344;28;20801;-74
2021/12/12 02:13:17;;;;;;;6.53;4.17;;;;;;;;;;5071295;28;20497;-74
2021/12/12 02:15:45;;;;;;;5.07;3.07;;;;;;;;;;5071023;28;20485;-74
2021/12/12 02:18:14;;;;;;;3.70;3.00;;;;;;;;;;5070569;28;20453;-74
2021/12/12 02:20:52;;;;;;;6.17;4.30;;;;;;;;;;5066615;28;20537;-74
2021/12/12 02:23:30;;;;;;;5.00;3.97;;;;;;;;;;5059061;28;20529;-74
2021/12/12 02:37:10;;;;;;;4.80;3.57;;;;;;;;;;5068320;28;20948;-75
2021/12/12 02:39:39;;;;;;;5.20;3.57;;;;;;;;;;5071057;28;20449;-73
2021/12/12 02:42:07;;;;;;;6.60;3.80;;;;;;;;;;5066057;28;20458;-76
2021/12/12 02:44:36;;;;;;;5.27;4.77;;;;;;;;;;5069887;28;20581;-76
2021/12/12 02:47:10;;;;;;;4.23;3.80;;;;;;;;;;5066310;28;20453;-76
2021/12/12 02:49:40;;;;;;;6.30;2.93;;;;;;;;;;5065785;28;20792;-76
2021/12/12 02:52:08;;;;;;;4.03;3.30;;;;;;;;;;5069382;28;20446;-76
2021/12/12 02:54:36;;;;;;;5.93;3.73;;;;;;;;;;5058898;28;20485;-76
2021/12/12 02:57:05;;;;;;;5.13;3.60;;;;;;;;;;5065789;28;20449;-76
2021/12/12 02:59:32;;;;;;;4.30;3.77;;;;;;;;;;5066554;28;20450;-75
2021/12/12 03:02:01;;;;;;;7.40;3.80;;;;;;;;;;5060226;28;20442;-76
2021/12/12 03:04:29;;;;;;;3.97;3.07;;;;;;;;;;5058793;28;20446;-73
2021/12/12 03:06:57;;;;;;;4.63;3.20;;;;;;;;;;5068816;28;20449;-76
2021/12/12 03:09:25;;;;;;;3.50;3.00;;;;;;;;;;5070876;28;20445;-74
2021/12/12 03:11:54;;;;;;;3.43;3.00;;;;;;;;;;5068112;28;20957;-74
2021/12/12 03:14:22;;;;;;;3.47;2.73;;;;;;;;;;5064390;28;20980;-74
2021/12/12 03:16:50;;;;;;;3.97;3.57;;;;;;;;;;5064729;28;20453;-74
2021/12/12 03:19:19;;;;;;;5.70;2.57;;;;;;;;;;5069306;28;20468;-72
2021/12/12 03:21:47;;;;;;;4.27;2.80;;;;;;;;;;5063469;28;20500;-74
2021/12/12 03:24:19;;;;;;;11.53;3.80;;;;;;;;;;5060640;28;20449;-74
2021/12/12 03:26:47;;;;;;;4.20;3.27;;;;;;;;;;5070434;28;20441;-73
2021/12/12 03:29:14;;;;;;;5.90;3.57;;;;;;;;;;5058749;28;20454;-73
2021/12/12 03:31:45;;;;;;;4.33;3.50;;;;;;;;;;5069083;28;20448;-73
2021/12/12 03:34:13;;;;;;;5.53;3.60;;;;;;;;;;5065553;28;20474;-73
2021/12/12 03:36:41;;;;;;;6.67;2.50;;;;;;;;;;5069653;28;20456;-73
2021/12/12 03:39:10;;;;;;;4.77;3.87;;;;;;;;;;5069498;28;20449;-73
2021/12/12 03:41:37;;;;;;;4.67;3.43;;;;;;;;;;5068671;28;20811;-72
2021/12/12 03:44:06;;;;;;;9.20;4.30;;;;;;;;;;5068975;28;20902;-74
2021/12/12 03:46:34;;;;;;;5.10;2.90;;;;;;;;;;5070184;28;20467;-73
2021/12/12 03:49:03;;;;;;;3.30;3.00;;;;;;;;;;5069147;28;20441;-72
2021/12/12 03:51:31;;;;;;;4.77;3.00;;;;;;;;;;5059203;28;20898;-73
2021/12/12 03:53:58;;;;;;;3.53;3.10;;;;;;;;;;5056160;28;20457;-72
2021/12/12 03:56:26;;;;;;;3.77;2.60;;;;;;;;;;5070149;28;20893;-71
2021/12/12 03:58:54;;;;;;;5.00;3.00;;;;;;;;;;5070185;28;20535;-69
2021/12/12 04:01:23;;;;;;;4.53;3.37;;;;;;;;;;5069340;28;20467;-72
2021/12/12 04:03:51;;;;;;;5.63;3.90;;;;;;;;;;5070600;28;20456;-74
2021/12/12 04:06:22;;;;;;;4.80;3.30;;;;;;;;;;5059243;28;20478;-75
2021/12/12 04:08:50;;;;;;;6.00;3.47;;;;;;;;;;5054419;28;20459;-74
2021/12/12 04:11:20;;;;;;;6.10;3.67;;;;;;;;;;5069740;28;20539;-75
2021/12/12 04:13:48;;;;;;;5.17;2.90;;;;;;;;;;5072140;28;20779;-74
2021/12/12 04:16:16;;;;;;;5.73;3.00;;;3.80;1.00;;;;;;5072645;28;20863;-72
2021/12/12 04:18:43;;;;;;;3.37;2.90;;;3.20;99.90;;;;;;5059671;28;20472;-72
2021/12/12 04:21:12;;;;;;;4.93;3.13;;;3.10;99.90;;;;;;5064817;28;20446;-74
2021/12/12 04:23:41;;;;;;;5.77;2.77;;;3.00;99.90;;;;;;5060270;28;20638;-74
2021/12/12 04:26:13;;;;;;;3.60;3.03;;;3.10;99.90;;;;;;5072722;28;20458;-72
2021/12/12 04:28:41;;;;;;;3.67;2.73;;;3.00;99.90;;;;;;5073618;28;20450;-72
2021/12/12 04:31:09;;;;;;;6.00;3.00;;;2.80;99.90;;;;;;5072391;28;20453;-72
2021/12/12 04:33:36;;;;;;;4.00;3.20;;;2.90;99.90;;;;;;5067956;28;20446;-75
2021/12/12 04:36:03;;;;;;;4.57;3.33;;;2.70;99.90;;;;;;5066744;28;20980;-72
2021/12/12 04:38:31;;;;;;;4.60;3.60;;;;;;;;;;5073305;28;20813;-71
2021/12/12 04:40:59;;;;;;;4.53;3.27;;;;;;;;;;5072660;28;20528;-72
2021/12/12 04:43:26;;;;;;;3.43;3.00;;;;;;;;;;5073020;28;20483;-74
2021/12/12 04:46:04;;;;;;;4.53;3.60;;;;;;;;;;5071110;28;20456;-71
2021/12/12 04:51:20;;;;;;;5.07;3.50;;;;;;;;;;5062965;28;20429;-74
2021/12/12 04:53:49;;;;;;;5.43;3.23;;;;;;;;;;5067134;28;20441;-74
2021/12/12 04:56:23;;;;;;;4.87;3.37;;;;;;;;;;5072426;28;20481;-72
2021/12/12 04:58:52;;;;;;;4.93;3.57;;;;;;;;;;5068687;28;20450;-73
2021/12/12 05:01:21;;;;;;;4.43;2.97;;;;;;;;;;5071319;28;20518;-75
2021/12/12 05:03:52;;;;;;;4.10;2.83;;;;;;;;;;5073001;28;20453;-74
2021/12/12 05:06:22;;;;;;;3.73;3.23;;;;;;;;;;5072165;28;20560;-74
2021/12/12 05:08:51;;;;;;;4.30;3.80;;;;;;;;;;5067835;28;20449;-72
2021/12/12 05:11:22;;;;;;;5.50;3.40;;;;;;;;;;5072511;28;20483;-71
2021/12/12 05:13:51;;;;;;;8.00;4.40;;;;;;;;;;5072229;28;20548;-75
2021/12/12 05:16:22;;;;;;;7.37;4.40;;;;;;;;;;5071919;28;20477;-74
2021/12/12 05:18:51;;;;;;;4.17;3.50;;;;;;;;;;5070120;28;20533;-74
2021/12/12 05:21:20;;;;;;;4.37;3.60;;;;;;;;;;5068250;28;20448;-74
2021/12/12 05:23:49;;;;;;;4.47;3.30;;;;;;;;;;5060493;28;20826;-74
2021/12/12 05:26:18;;;;;;;6.43;3.53;;;;;;;;;;5071386;28;20542;-74
2021/12/12 05:28:49;;;;;;;5.77;4.17;;;;;;;;;;5072550;28;20555;-74
2021/12/12 05:31:17;;;;;;;4.90;4.40;;;;;;;;;;5071085;28;20450;-74
2021/12/12 05:33:44;;;;;;;5.33;4.10;;;;;;;;;;5071974;28;20566;-73
2021/12/12 05:36:13;;;;;;;5.97;4.20;;;;;;;;;;5059029;28;21023;-74
2021/12/12 05:38:40;;;;;;;6.20;4.00;;;;;;;;;;5072317;28;20543;-74
2021/12/12 05:41:08;;;;;;;5.07;3.90;;;;;;;;;;5071355;28;20446;-74
2021/12/12 05:43:35;;;;;;;5.23;3.50;;;;;;;;;;5071367;28;20575;-74
2021/12/12 05:46:04;;;;;;;6.00;3.80;;;;;;;;;;5070990;28;20456;-74
2021/12/12 05:48:32;;;;;;;4.60;3.87;;;;;;;;;;5071353;28;21046;-74
2021/12/12 05:51:01;;;;;;;5.20;3.50;;;;;;;;;;5060192;28;20453;-74
2021/12/12 05:53:28;;;;;;;5.80;3.77;;;;;;;;;;5071323;28;20457;-74
2021/12/12 05:55:55;;;;;;;5.27;3.70;;;;;;;;;;5066211;28;20565;-73
2021/12/12 05:58:23;;;;;;;7.00;4.70;;;;;;;;;;5062194;28;20526;-74
2021/12/12 06:00:51;;;;;;;5.20;3.37;;;;;;;;;;5057295;28;20442;-74
2021/12/12 06:03:22;;;;;;;7.10;4.30;;;;;;;;;;5054178;28;20445;-74
2021/12/12 06:05:50;;;;;;;4.60;3.33;;;;;;;;;;5071134;28;20564;-74
2021/12/12 06:08:17;;;;;;;4.03;2.83;;;;;;;;;;5070933;28;20465;-74
2021/12/12 06:10:45;;;;;;;5.50;3.80;;;;;;;;;;5065052;28;20749;-74
2021/12/12 06:13:15;;;;;;;4.20;3.70;;;;;;;;;;5064700;28;20475;-73
2021/12/12 06:15:48;;;;;;;4.70;3.60;;;;;;;;;;5051927;28;21053;-74
2021/12/12 06:18:15;;;;;;;4.37;3.10;;;;;;;;;;5063169;28;20461;-75
2021/12/12 06:20:44;;;;;;;4.00;3.53;;;;;;;;;;5064775;28;20524;-74
2021/12/12 06:23:13;;;;;;;8.50;3.10;;;;;;;;;;5057649;28;20445;-73
2021/12/12 06:25:41;;;;;;;5.77;3.80;;;;;;;;;;5071175;28;20467;-73
2021/12/12 06:28:08;;;;;;;4.00;3.00;;;;;;;;;;5070444;28;20453;-72
2021/12/12 06:30:36;;;;;;;6.00;3.10;;;;;;;;;;5071200;28;20448;-73
2021/12/12 06:33:04;;;;;;;5.20;3.83;;;;;;;;;;5070106;28;20971;-73
2021/12/12 06:35:32;;;;;;;6.10;3.53;;;;;;;;;;5070390;28;20492;-73
2021/12/12 06:38:03;;;;;;;5.70;4.30;;;;;;;;;;5068863;28;20472;-73
2021/12/12 06:40:30;;;;;;;5.00;4.30;;;;;;;;;;5068072;28;20963;-74
2021/12/12 06:42:58;;;;;;;3.50;2.87;;;;;;;;;;5057530;28;20450;-74
2021/12/12 06:45:26;;;;;;;5.97;4.47;;;;;;;;;;5062523;28;20445;-73
2021/12/12 06:47:54;;;;;;;8.60;4.30;;;;;;;;;;5057785;28;20445;-71
2021/12/12 06:50:22;;;;;;;5.60;3.20;;;;;;;;;;5057925;28;20445;-75
2021/12/12 06:52:50;;;;;;;5.23;4.00;;;;;;;;;;5060982;28;20525;-75
2021/12/12 06:55:20;;;;;;;4.50;3.03;;;;;;;;;;5062484;28;20842;-74
2021/12/12 06:57:47;;;;;;;9.00;7.07;;;;;;;;;;5065675;28;20454;-74
2021/12/12 07:00:16;;;;;;;8.70;5.70;;;;;;;;;;5069043;28;20446;-74
2021/12/12 07:02:45;;;;;;;7.70;3.97;;;;;;;;;;5051728;28;20452;-74
2021/12/12 07:05:13;;;;;;;5.50;4.10;;;;;;;;;;5063863;28;20800;-73
2021/12/12 07:07:40;;;;;;;5.03;3.07;;;;;;;;;;5057930;28;20474;-73
2021/12/12 07:10:08;;;;;;;5.00;3.80;;;;;;;;;;5052331;28;20448;-74
2021/12/12 07:12:39;;;;;;;4.93;3.50;;;;;;;;;;5071442;28;20485;-73
2021/12/12 07:15:09;;;;;;;4.83;3.23;;;;;;;;;;5069454;28;20776;-73
2021/12/12 07:17:37;;;;;;;7.20;4.10;;;;;;;;;;5062860;28;20526;-74
2021/12/12 07:20:06;;;;;;;9.17;5.60;;;;;;;;;;5065579;28;20450;-73
2021/12/12 07:22:33;;;;;;;9.80;6.77;;;;;;;;;;5060347;28;20453;-73
2021/12/12 07:25:01;;;;;;;6.27;4.10;;;;;;;;;;5067767;28;20457;-74
2021/12/12 07:27:28;;;;;;;4.67;4.13;;;;;;;;;;5070620;28;20458;-71
2021/12/12 07:29:57;;;;;;;6.13;5.27;;;;;;;;;;5070309;28;20937;-70
2021/12/12 07:32:26;;;;;;;5.77;3.90;;;;;;;;;;5070153;28;20449;-71
2021/12/12 07:34:54;;;;;;;5.63;3.90;;;;;;;;;;5070595;28;20806;-69
2021/12/12 07:37:21;;;;;;;7.00;3.60;;;;;;;;;;5066911;28;20481;-71
2021/12/12 07:39:50;;;;;;;6.37;5.27;;;;;;;;;;5070870;28;20449;-75
2021/12/12 07:42:18;;;;;;;9.13;5.50;;;;;;;;;;5068458;28;20449;-76
2021/12/12 07:44:46;;;;;;;7.20;4.23;;;;;;;;;;5069310;28;21004;-75
2021/12/12 07:47:16;;;;;;;6.23;3.90;;;;;;;;;;5060975;28;20968;-76
2021/12/12 07:49:45;;;;;;;5.60;4.07;;;;;;;;;;5059874;28;20814;-74
2021/12/12 07:52:15;;;;;;;8.30;5.00;;;;;;;;;;5066646;28;20446;-74
2021/12/12 07:54:42;;;;;;;6.73;4.20;;;;;;;;;;5073274;28;20864;-75
2021/12/12 07:57:10;;;;;;;7.10;3.83;;;;;;;;;;5074242;28;20842;-75
2021/12/12 07:59:38;;;;;;;7.03;4.00;;;;;;;;;;5075033;28;20537;-75
2021/12/12 08:02:06;;;;;;;5.90;3.80;;;;;;;;;;5065685;28;20442;-74
2021/12/12 08:04:35;;;;;;;6.73;5.10;;;;;;;;;;5054580;28;20528;-76
2021/12/12 08:07:02;;;;;;;4.87;3.67;;;;;;;;;;5067082;28;20539;-76
2021/12/12 08:09:30;;;;;;;6.60;4.40;;;;;;;;;;5074512;28;20511;-76
2021/12/12 08:11:58;;;;;;;5.23;3.73;;;;;;;;;;5073847;28;20460;-76
2021/12/12 08:14:26;;;;;;;5.00;3.60;;;;;;;;;;5064807;28;20446;-74
2021/12/12 08:16:54;;;;;;;6.40;3.93;;;;;;;;;;5071663;28;20489;-70
2021/12/12 08:19:22;;;;;;;6.33;3.90;;;;;;;;;;5072868;28;20536;-77
2021/12/12 08:21:52;;;;;;;5.43;3.40;;;;;;;;;;5057583;28;20452;-77
2021/12/12 08:24:19;;;;;;;6.43;4.43;;;;;;;;;;5059057;28;20430;-75
2021/12/12 08:26:47;;;;;;;8.73;5.50;;;;;;;;;;5072633;28;20455;-79
2021/12/12 08:29:16;;;;;;;4.43;2.60;;;;;;;;;;5073403;28;21017;-76
2021/12/12 08:31:43;;;;;;;8.80;3.73;;;;;;;;;;5074251;28;20445;-76
2021/12/12 08:34:11;;;;;;;5.10;3.30;;;;;;;;;;5072779;28;20462;-71
2021/12/12 08:36:39;;;;;;;3.50;2.90;;;;;;;;;;5074072;28;20481;-76
2021/12/12 08:39:10;;;;;;;5.00;3.00;;;;;;;;;;5068979;28;20445;-79
2021/12/12 08:41:38;;;;;;;3.47;3.07;;;;;;;;;;5054377;28;20457;-79
2021/12/12 08:44:06;;;;;;;4.40;2.67;;;;;;;;;;5067443;28;20557;-79
2021/12/12 08:46:34;;;;;;;3.20;2.60;;;;;;;;;;5074141;28;20544;-83
2021/12/12 08:49:02;;;;;;;5.97;2.47;;;;;;;;;;5071640;28;20468;-74
2021/12/12 08:51:32;;;;;;;4.77;2.30;;;;;;;;;;5059659;28;20873;-79
2021/12/12 08:54:03;;;;;;;3.40;2.57;;;;;;;;;;5059634;28;20453;-77
2021/12/12 08:56:43;;;;;;;3.40;2.83;;;;;;;;;;5066025;28;20484;-77
2021/12/12 08:59:11;;;;;;;3.30;2.80;;;;;;;;;;5064561;28;20534;-74
2021/12/12 09:01:39;;;;;;;5.20;3.07;;;;;;;;;;5051244;28;20461;-76
2021/12/12 09:04:06;;;;;;;4.33;3.07;;;;;;;;;;5056505;28;20454;-76
2021/12/12 09:06:35;;;;;;;4.40;2.90;;;;;;;;;;5063389;28;21000;-76
2021/12/12 09:09:06;;;;;;;3.50;2.30;;;;;;;;;;5050104;28;20451;-75
2021/12/12 09:11:36;;;;;;;3.30;2.50;;;;;;;;;;5063632;28;20441;-76
2021/12/12 09:14:09;;;;;;;4.23;3.30;;;;;;;;;;5050800;28;20446;-75
2021/12/12 09:16:38;;;;;;;5.90;3.10;;;;;;;;;;5056316;28;20478;-77
2021/12/12 09:19:07;;;;;;;4.20;2.57;;;;;;;;;;5067304;28;20452;-75
2021/12/12 09:21:37;;;;;;;4.23;2.60;;;;;;;;;;5052939;28;20454;-77
2021/12/12 09:24:10;;;;;;;2.57;2.23;;;;;;;;;;5061093;28;20464;-78
2021/12/12 09:26:40;;;;;;;1.93;1.73;;;;;;;;;;5070237;28;20777;-78
2021/12/12 09:29:14;;;;;;;3.07;2.07;;;;;;;;;;5064633;28;20438;-77
2021/12/12 09:31:44;;;;;;;4.27;2.40;;;;;;;;;;5061581;28;21006;-78
2021/12/12 09:34:13;;;;;;;3.47;2.27;;;;;;;;;;5061690;28;20453;-76
2021/12/12 09:36:42;;;;;;;3.70;1.97;;;;;;;;;;5049506;28;21073;-76
2021/12/12 09:39:11;;;;;;;4.80;2.73;;;;;;;;;;5062457;28;20457;-76
2021/12/12 09:41:47;;;;;;;3.63;2.77;;;;;;;;;;5062508;28;20537;-77
2021/12/12 09:44:31;;;;;;;2.27;1.90;;;;;;;;;;5060179;28;20974;-75
2021/12/12 09:47:26;;;;;;;2.77;2.40;;;;;;;;;;5069570;28;20460;-76
2021/12/12 09:53:04;;;;;;;2.50;2.30;;;;;;;;;;5067507;28;20425;-75
2021/12/12 09:55:36;;;;;;;4.17;2.67;;;;;;;;;;5047965;28;20468;-72
2021/12/12 09:58:06;;;;;;;2.23;2.03;;;;;;;;;;5068409;28;20473;-75
2021/12/12 10:00:37;;;;;;;1.60;1.50;;;;;;;;;;5063886;28;20476;-74
2021/12/12 10:03:09;;;;;;;2.40;2.13;;;;;;;;;;5069133;28;20808;-75
2021/12/12 10:05:43;;;;;;;2.07;1.80;;;;;;;;;;5056150;28;21112;-75
2021/12/12 10:08:12;;;;;;;2.33;1.90;;;;;;;;;;5066029;28;20953;-74
2021/12/12 10:10:45;;;;;;;1.97;1.60;;;;;;;;;;5052517;28;20961;-75
2021/12/12 10:13:15;;;;;;;2.40;1.87;;;;;;;;;;5054925;28;20477;-74
2021/12/12 10:15:45;;;;;;;4.10;2.00;;;;;;;;;;5057531;28;20452;-75
2021/12/12 10:18:18;;;;;;;2.17;1.73;;;;;;;;;;5068704;28;20564;-74
2021/12/12 10:20:53;;;;;;;2.07;1.77;;;;;;;;;;5069254;28;20454;-74
2021/12/12 10:23:23;;;;;;;1.43;1.20;;;;;;;;;;5051009;28;20446;-73
2021/12/12 10:25:54;;;;;;;3.23;1.73;;;;;;;;;;5066447;28;20452;-74
2021/12/12 10:28:24;;;;;;;1.77;1.23;;;;;;;;;;5060653;28;20451;-76
2021/12/12 10:30:56;;;;;;;2.40;1.50;;;;;;;;;;5054603;28;20458;-75
2021/12/12 10:33:26;;;;;;;1.60;0.90;;;;;;;;;;5065832;28;20445;-75
2021/12/12 10:35:55;;;;;;;2.53;1.97;;;;;;;;;;5049147;28;20527;-71
2021/12/12 10:38:23;;;;;;;1.93;1.73;;;;;;;;;;5067747;28;20509;-75
2021/12/12 10:40:52;;;;;;;2.60;1.60;;;;;;;;;;5065816;28;20489;-74
2021/12/12 10:43:23;;;;;;;1.27;1.17;;;;;;;;;;5068257;28;20492;-75
2021/12/12 10:45:56;;;;;;;2.30;2.10;;;;;;;;;;5068292;28;20445;-74
2021/12/12 10:48:29;;;;;;;3.67;1.83;;;;;;;;;;5069187;28;20543;-74
2021/12/12 10:50:58;;;;;;;3.53;1.50;;;;;;;;;;5066464;28;20443;-75
2021/12/12 10:53:30;;;;;;;2.30;1.43;;;;;;;;;;5063875;28;20441;-73
2021/12/12 10:55:59;;;;;;;2.43;1.60;;;;;;;;;;5067433;28;20456;-75
2021/12/12 10:58:28;;;;;;;2.23;1.40;;;;;;;;;;5057020;28;20769;-74
2021/12/12 11:00:59;;;;;;;1.70;1.43;;;;;;;;;;5066195;28;20798;-73
2021/12/12 11:03:30;;;;;;;2.50;2.07;;;;;;;;;;5058311;28;20454;-76
2021/12/12 11:06:01;;;;;;;1.93;1.40;;;;;;;;;;5055483;28;20441;-74
2021/12/12 11:08:30;;;;;;;3.30;1.87;;;;;;;;;;5052041;28;20898;-75
2021/12/12 11:10:58;;;;;;;2.33;1.47;;;;;;;;;;5067622;28;20539;-74
2021/12/12 11:13:29;;;;;;;2.60;1.90;;;;;;;;;;5067325;28;20525;-73
2021/12/12 11:15:59;;;;;;;1.40;1.17;;;;;;;;;;5066545;28;20448;-75
2021/12/12 11:18:28;;;;;;;2.60;1.30;;;;;;;;;;5068886;28;20477;-74
2021/12/12 11:20:58;;;;;;;3.30;1.63;;;;;;;;;;5048348;28;20786;-74
2021/12/12 11:23:29;;;;;;;2.47;1.57;;;;;;;;;;5067306;28;20449;-73
2021/12/12 11:25:59;;;;;;;2.93;1.70;;;;;;;;;;5070026;28;20503;-75
2021/12/12 11:28:28;;;;;;;2.30;1.40;;;;;;;;;;5074556;28;20611;-74
2021/12/12 11:30:57;;;;;;;2.23;1.93;;;;;;;;;;5071783;28;20449;-73
2021/12/12 11:33:27;;;;;;;1.57;1.47;;;;;;;;;;5077764;28;20972;-74
2021/12/12 11:35:56;;;;;;;3.50;1.63;;;;;;;;;;5072070;28;20952;-72
2021/12/12 11:38:28;;;;;;;4.50;2.07;;;;;;;;;;5071597;28;20568;-74
2021/12/12 11:40:59;;;;;;;1.83;1.57;;;;;;;;;;5067552;28;20442;-74
2021/12/12 11:43:33;;;;;;;2.60;1.60;;;;;;;;;;5056716;28;20485;-74
2021/12/12 11:46:03;;;;;;;4.53;1.90;;;;;;;;;;5062116;28;20449;-74
2021/12/12 11:48:37;;;;;;;2.90;2.17;;;;;;;;;;5063693;28;20553;-78
2021/12/12 11:51:06;;;;;;;2.07;1.40;;;;;;;;;;5067564;28;20437;-74
2021/12/12 11:53:37;;;;;;;3.17;1.70;;;;;;;;;;5070854;28;20481;-75
2021/12/12 11:56:09;;;;;;;2.23;1.67;;;;;;;;;;5069778;28;20437;-76
2021/12/12 11:58:39;;;;;;;2.50;1.53;;;;;;;;;;5070336;28;20469;-74
2021/12/12 12:01:17;;;;;;;2.13;1.60;;;;;;;;;;5070386;28;20448;-75
2021/12/12 12:04:05;;;;;;;3.47;2.10;;;;;;;;;;5070898;28;20457;-77
2021/12/12 12:06:37;;;;;;;3.53;1.90;;;;;;;;;;5068591;28;20493;-76
2021/12/12 12:09:12;;;;;;;4.83;2.73;;;;;;;;;;5069950;28;20925;-77
2021/12/12 12:11:52;;;;;;;3.87;1.97;;;;;;;;;;5070293;28;20449;-76
2021/12/12 12:14:24;;;;;;;2.57;2.23;;;;;;;;;;5059322;28;20453;-77
2021/12/12 12:16:55;;;;;;;3.37;1.87;;;;;;;;;;5070571;28;20940;-77
2021/12/12 12:19:27;;;;;;;2.87;1.80;;;;;;;;;;5070996;28;20540;-77
2021/12/12 12:22:06;;;;;;;2.20;1.40;;;;;;;;;;5069956;28;20525;-72
2021/12/12 12:24:41;;;;;;;1.63;1.53;;;;;;;;;;5070652;28;20441;-77
2021/12/12 12:27:12;;;;;;;1.57;1.47;;;;;;;;;;5069576;28;20945;-77
2021/12/12 12:29:54;;;;;;;5.10;2.27;;;;;;;;;;5070401;28;20449;-77
2021/12/12 12:32:39;;;;;;;2.53;1.80;;;;;;;;;;5070764;28;20792;-77
2021/12/12 12:35:36;;;;;;;6.00;1.80;;;;;;;;;;5071983;28;20550;-77
2021/12/12 12:38:18;;;;;;;2.17;1.80;;;;;;;;;;5050987;28;20492;-77
2021/12/12 12:41:00;;;;;;;2.53;1.33;;;;;;;;;;5017231;28;20743;-77
2021/12/12 12:43:46;;;;;;;2.07;1.70;;;;;;;;;;5061668;28;20483;-77
2021/12/12 12:49:38;;;;;;;2.17;1.73;;;;;;;;;;5103803;27;20546;-73
2021/12/12 12:52:18;;;;;;;2.87;2.00;;;;;;;;;;5100302;28;20446;-73
2021/12/12 12:54:47;;;;;;;3.57;1.53;;;;;;;;;;5099776;28;20444;-78
2021/12/12 12:57:21;;;;;;;3.60;2.20;;;;;;;;;;5090492;28;20449;-78
2021/12/12 12:59:58;;;;;;;2.60;1.80;;;;;;;;;;5098142;28;20472;-74
2021/12/12 13:02:27;;;;;;;2.13;1.83;;;;;;;;;;5107498;28;20495;-69
2021/12/12 13:05:12;;;;;;;2.20;1.57;;;;;;;;;;5100902;28;20455;-69
2021/12/12 13:08:11;;;;;;;2.33;1.30;;;;;;;;;;5093654;28;20489;-73
2021/12/12 13:10:39;;;;;;;3.53;2.07;;;;;;;;;;5095818;28;20539;-74
2021/12/12 13:13:09;;;;;;;1.93;1.60;;;;;;;;;;5085267;28;20449;-74
2021/12/12 13:15:41;;;;;;;2.40;1.90;;;;;;;;;;5087496;28;20444;-74
2021/12/12 13:18:17;;;;;;;3.30;1.80;;;;;;;;;;5101713;28;20460;-73
2021/12/12 13:20:53;;;;;;;3.27;1.43;;;;;;;;;;5093361;28;20448;-74
2021/12/12 13:23:34;;;;;;;3.80;1.77;;;;;;;;;;5104434;28;20439;-74
2021/12/12 13:26:03;;;;;;;2.83;1.70;;;;;;;;;;5082815;28;20457;-74
2021/12/12 13:28:37;;;;;;;2.17;1.73;;;;;;;;;;5089401;28;20487;-74
2021/12/12 13:31:13;;;;;;;1.40;1.27;;;;;;;;;;5097595;28;20526;-75
2021/12/12 13:33:44;;;;;;;4.27;2.10;;;;;;;;;;5096775;28;20856;-76
2021/12/12 13:36:17;;;;;;;3.40;1.70;;;;;;;;;;5090248;28;20451;-77
2021/12/12 13:38:54;;;;;;;3.93;2.67;;;;;;;;;;5089009;28;20450;-74
2021/12/12 13:41:28;;;;;;;4.83;3.37;;;;;;;;;;5100046;28;20457;-74
2021/12/12 13:44:00;;;;;;;2.57;1.63;;;;;;;;;;5100672;28;20847;-74
2021/12/12 13:46:31;;;;;;;2.60;1.93;;;;;;;;;;5085032;28;20873;-74
2021/12/12 13:49:03;;;;;;;1.90;1.70;;;;;;;;;;5091577;28;20843;-75
2021/12/12 13:51:38;;;;;;;3.30;1.90;;;;;;;;;;5094680;28;20451;-75
2021/12/12 13:54:12;;;;;;;2.33;1.53;;;;;;;;;;5104769;28;20447;-74
2021/12/12 13:56:44;;;;;;;1.70;1.60;;;;;;;;;;5105060;28;20470;-74
2021/12/12 13:59:15;;;;;;;2.37;1.80;;;;;;;;;;5089144;28;20449;-74
2021/12/12 14:01:46;;;;;;;2.67;1.87;;;;;;;;;;5078467;28;20524;-75
2021/12/12 14:04:16;;;;;;;2.83;1.67;;;;;;;;;;5074034;28;20778;-75
2021/12/12 14:06:44;;;;;;;2.33;1.80;;;;;;;;;;5081075;28;20484;-75
2021/12/12 14:09:14;;;;;;;2.33;2.10;;;;;;;;;;5078945;28;20473;-74
2021/12/12 14:11:45;;;;;;;2.80;1.90;;;;;;;;;;5086880;28;20539;-74
2021/12/12 14:14:18;;;;;;;2.70;1.57;;;;;;;;;;5087127;28;21024;-75
2021/12/12 14:16:46;;;;;;;2.97;1.57;;;;;;;;;;5073131;28;20451;-75
2021/12/12 14:19:15;;;;;;;1.70;1.30;;;;;;;;;;5087037;28;20548;-75
2021/12/12 14:21:44;;;;;;;4.07;2.10;;;;;;;;;;5088796;28;20440;-75
2021/12/12 14:24:12;;;;;;;2.20;1.87;;;;;;;;;;5090254;28;20452;-74
2021/12/12 14:26:42;;;;;;;3.47;1.50;;;;;;;;;;5080507;28;20783;-73
2021/12/12 14:29:13;;;;;;;2.10;1.93;;;;;;;;;;5081522;28;20480;-75
2021/12/12 14:31:45;;;;;;;3.00;1.70;;;;;;;;;;5090813;28;20532;-75
2021/12/12 14:34:13;;;;;;;2.17;1.80;;;;;;;;;;5088863;28;20929;-75
2021/12/12 14:36:42;;;;;;;4.40;2.37;;;;;;;;;;5084838;28;20461;-75
2021/12/12 14:39:11;;;;;;;3.10;2.27;;;;;;;;;;5085433;28;20459;-75
2021/12/12 14:41:41;;;;;;;2.90;1.90;;;;;;;;;;5084096;28;20474;-75
2021/12/12 14:44:11;;;;;;;2.37;1.80;;;;;;;;;;5083202;28;20437;-73
2021/12/12 14:46:40;;;;;;;2.77;1.77;;;;;;;;;;5071464;28;20456;-74
2021/12/12 14:49:08;;;;;;;3.73;2.60;;;;;;;;;;5085741;28;20515;-74
2021/12/12 14:51:38;;;;;;;3.73;1.97;;;;;;;;;;5083333;28;20445;-73
2021/12/12 14:54:09;;;;;;;2.17;1.93;;;;;;;;;;5082347;28;20963;-76
2021/12/12 14:56:39;;;;;;;2.10;1.83;;;;;;;;;;5084864;28;20480;-72
2021/12/12 14:59:08;;;;;;;3.00;2.27;;;;;;;;;;5083253;28;20452;-72
2021/12/12 15:01:38;;;;;;;3.33;2.50;;;;;;;;;;5086289;28;20445;-72
2021/12/12 15:04:10;;;;;;;5.23;2.07;;;;;;;;;;5086635;28;20932;-71
2021/12/12 15:06:43;;;;;;;2.87;1.80;;;;;;;;;;5069525;28;20445;-71
2021/12/12 15:09:14;;;;;;;1.70;1.60;;;;;;;;;;5073302;28;20548;-72
2021/12/12 15:11:44;;;;;;;2.13;1.53;;;;;;;;;;5084639;28;20482;-71
2021/12/12 15:14:14;;;;;;;2.73;2.20;;;;;;;;;;5068908;28;21004;-71
2021/12/12 15:16:44;;;;;;;3.40;2.43;;;;;;;;;;5079045;28;20553;-71
2021/12/12 15:19:12;;;;;;;3.63;2.40;;;;;;;;;;5078389;28;20467;-71
2021/12/12 15:21:40;;;;;;;2.13;1.83;;;;;;;;;;5075661;28;20450;-72